Time;durP1;ratioP1;P1;durP2;ratioP2;P2;SDS_P1;SDS_P2;PMS_P1;PMS_P2;Temp;Humidity;BMP_temperature;BMP_pressure;BME280_temperature;BME280_humidity;BME280_pressure;Samples;Min_cycle;Max_cycle;Signal;HPM_P1;HPM_P2
2022/09/27 00:00:10;;;;;;;9.80;0.97;;;10.40;99.90;;;;;;5037339;28;20619;-81
2022/09/27 00:02:37;;;;;;;0.40;0.30;;;10.40;99.90;;;;;;5029246;28;20708;-81
2022/09/27 00:05:04;;;;;;;0.40;0.30;;;10.30;99.90;;;;;;5035539;28;20655;-81
2022/09/27 00:07:31;;;;;;;0.53;0.50;;;10.40;99.90;;;;;;5036954;28;20662;-81
2022/09/27 00:09:59;;;;;;;0.40;0.40;;;10.30;99.90;;;;;;5038056;28;20655;-82
2022/09/27 00:12:27;;;;;;;0.40;0.40;;;10.40;99.90;;;;;;5040856;28;20659;-81
2022/09/27 00:14:55;;;;;;;0.63;0.63;;;10.50;99.90;;;;;;5039955;28;20612;-80
2022/09/27 00:17:22;;;;;;;0.47;0.40;;;10.50;99.90;;;;;;5040133;28;20653;-81
2022/09/27 00:19:49;;;;;;;0.60;0.50;;;10.40;99.90;;;;;;5038270;28;20612;-82
2022/09/27 00:22:16;;;;;;;0.40;0.40;;;10.40;99.90;;;;;;5035234;28;21505;-82
2022/09/27 00:24:43;;;;;;;0.37;0.37;;;10.50;99.90;;;;;;5034719;28;20691;-81
2022/09/27 00:27:10;;;;;;;0.50;0.40;;;10.40;99.90;;;;;;5037054;28;20615;-81
2022/09/27 00:29:38;;;;;;;0.40;0.30;;;10.40;99.90;;;;;;5038700;28;20692;-81
2022/09/27 00:32:05;;;;;;;0.50;0.33;;;10.40;99.90;;;;;;5039937;28;20631;-81
2022/09/27 00:34:32;;;;;;;0.30;0.23;;;10.30;99.90;;;;;;5035634;28;20658;-81
2022/09/27 00:36:59;;;;;;;0.30;0.23;;;10.30;99.90;;;;;;5035804;28;20653;-82
2022/09/27 00:39:26;;;;;;;0.57;0.53;;;10.40;99.90;;;;;;5035928;28;20651;-81
2022/09/27 00:41:53;;;;;;;1.17;0.60;;;10.40;99.90;;;;;;5035745;28;20624;-81
2022/09/27 00:45:09;;;;;;;0.60;0.47;;;10.40;99.90;;;;;;5032683;28;20651;-80
2022/09/27 00:47:42;;;;;;;0.50;0.50;;;10.40;99.90;;;;;;4966194;28;20737;-81
2022/09/27 00:50:19;;;;;;;0.43;0.30;;;10.30;99.90;;;;;;5016994;28;20632;-81
2022/09/27 00:52:54;;;;;;;1.63;0.80;;;10.20;99.90;;;;;;5030562;28;20718;-81
2022/09/27 00:55:26;;;;;;;0.67;0.30;;;10.20;99.90;;;;;;5029530;28;20639;-81
2022/09/27 00:57:53;;;;;;;1.53;0.50;;;10.30;99.90;;;;;;5021476;28;20676;-81
2022/09/27 01:00:22;;;;;;;0.40;0.33;;;10.20;99.90;;;;;;5027927;28;20962;-82
2022/09/27 01:02:53;;;;;;;0.60;0.50;;;10.30;99.90;;;;;;5028851;28;20626;-81
2022/09/27 01:05:23;;;;;;;0.60;0.40;;;10.30;99.90;;;;;;5027696;28;20694;-81
2022/09/27 01:07:50;;;;;;;5.03;0.47;;;10.30;99.90;;;;;;5026943;28;20673;-81
2022/09/27 01:10:20;;;;;;;0.53;0.50;;;10.40;99.90;;;;;;5027464;28;20654;-81
2022/09/27 01:12:59;;;;;;;0.67;0.40;;;10.30;99.90;;;;;;5027359;28;20638;-80
2022/09/27 01:15:34;;;;;;;0.50;0.40;;;10.40;99.90;;;;;;5026095;28;20615;-81
2022/09/27 01:18:16;;;;;;;0.30;0.20;;;10.40;99.90;;;;;;5025781;28;20631;-80
2022/09/27 01:21:20;;;;;;;1.07;0.50;;;10.30;99.90;;;;;;5027474;28;20635;-80
2022/09/27 01:24:20;;;;;;;0.40;0.30;;;10.30;99.90;;;;;;5004924;28;20726;-80
2022/09/27 01:27:12;;;;;;;0.77;0.40;;;10.20;99.90;;;;;;5027562;28;20623;-80
2022/09/27 01:29:49;;;;;;;2.30;0.60;;;10.30;99.90;;;;;;5026755;28;20698;-80
2022/09/27 01:32:24;;;;;;;0.30;0.20;;;10.30;99.90;;;;;;5027319;28;20626;-81
2022/09/27 01:35:01;;;;;;;0.60;0.30;;;10.30;99.90;;;;;;5027164;28;20742;-80
2022/09/27 01:37:36;;;;;;;1.50;0.30;;;10.30;99.90;;;;;;5027160;28;20627;-80
2022/09/27 01:40:10;;;;;;;0.60;0.50;;;10.40;99.90;;;;;;5027265;28;20722;-80
2022/09/27 01:42:42;;;;;;;0.43;0.40;;;10.30;99.90;;;;;;5024716;28;21010;-80
2022/09/27 01:45:14;;;;;;;0.60;0.60;;;10.20;99.90;;;;;;5026817;28;20667;-80
2022/09/27 01:47:45;;;;;;;0.40;0.30;;;10.30;99.90;;;;;;5014306;28;20655;-80
2022/09/27 01:50:19;;;;;;;0.40;0.40;;;10.20;99.90;;;;;;5026484;28;20673;-80
2022/09/27 01:52:50;;;;;;;0.57;0.33;;;10.20;99.90;;;;;;5027459;28;20659;-80
2022/09/27 01:55:21;;;;;;;0.40;0.30;;;10.20;99.90;;;;;;5026327;28;20631;-80
2022/09/27 01:57:56;;;;;;;0.60;0.57;;;10.30;99.90;;;;;;5026776;28;20734;-80
2022/09/27 02:00:24;;;;;;;0.40;0.30;;;10.30;99.90;;;;;;5026754;28;20627;-81
2022/09/27 02:02:57;;;;;;;0.30;0.20;;;10.30;99.90;;;;;;5026972;28;20705;-80
2022/09/27 02:05:28;;;;;;;0.60;0.53;;;10.30;99.90;;;;;;5026412;28;20691;-79
2022/09/27 02:08:00;;;;;;;0.40;0.30;;;10.40;99.90;;;;;;5026768;28;20632;-79
2022/09/27 02:10:32;;;;;;;0.50;0.50;;;10.40;99.90;;;;;;5026476;28;20622;-80
2022/09/27 02:13:06;;;;;;;1.17;0.67;;;10.30;99.90;;;;;;5026615;28;20670;-80
2022/09/27 02:15:47;;;;;;;2.30;0.40;;;10.30;99.90;;;;;;5026390;28;20631;-80
2022/09/27 02:18:19;;;;;;;0.47;0.30;;;10.20;99.90;;;;;;5026949;28;20631;-80
2022/09/27 02:20:52;;;;;;;0.40;0.30;;;10.30;99.90;;;;;;5034036;28;20952;-80
2022/09/27 02:23:22;;;;;;;0.50;0.50;;;10.30;99.90;;;;;;5039111;28;20642;-80
2022/09/27 02:25:57;;;;;;;0.30;0.20;;;10.30;99.90;;;;;;5036484;28;20697;-81
2022/09/27 02:28:29;;;;;;;0.70;0.50;;;10.30;99.90;;;;;;5034556;28;20623;-81
2022/09/27 02:30:56;;;;;;;0.40;0.30;;;10.20;99.90;;;;;;5035694;28;20616;-81
2022/09/27 02:33:29;;;;;;;0.50;0.30;;;10.10;99.90;;;;;;5034164;28;20620;-81
2022/09/27 02:35:57;;;;;;;0.30;0.20;;;10.20;99.90;;;;;;5034940;28;20634;-81
2022/09/27 02:38:24;;;;;;;0.30;0.20;;;10.20;99.90;;;;;;5034920;28;20674;-80
2022/09/27 02:40:51;;;;;;;0.30;0.20;;;10.20;99.90;;;;;;5034839;28;21089;-81
2022/09/27 02:43:21;;;;;;;0.40;0.20;;;10.10;99.90;;;;;;5035381;28;20635;-81
2022/09/27 02:46:01;;;;;;;0.40;0.30;;;10.10;99.90;;;;;;5031253;28;20691;-80
2022/09/27 02:48:39;;;;;;;0.30;0.20;;;10.00;99.90;;;;;;5027212;28;20619;-81
2022/09/27 02:51:21;;;;;;;0.30;0.20;;;10.10;99.90;;;;;;5039686;28;20697;-82
2022/09/27 02:54:03;;;;;;;0.30;0.20;;;10.00;99.90;;;;;;5039770;28;21014;-81
2022/09/27 02:56:40;;;;;;;0.30;0.30;;;9.90;99.90;;;;;;5037206;28;20642;-81
2022/09/27 02:59:13;;;;;;;0.30;0.20;;;9.80;99.90;;;;;;5038683;28;20613;-81
2022/09/27 03:01:49;;;;;;;1.23;0.30;;;9.80;99.90;;;;;;5037584;28;20626;-82
2022/09/27 03:04:23;;;;;;;0.60;0.20;;;9.80;99.90;;;;;;5022276;28;20606;-81
2022/09/27 03:06:52;;;;;;;0.37;0.30;;;9.70;99.90;;;;;;5037407;28;20667;-81
2022/09/27 03:09:19;;;;;;;0.40;0.33;;;9.80;99.90;;;;;;5022256;28;20627;-82
2022/09/27 03:11:46;;;;;;;0.30;0.20;;;9.60;99.90;;;;;;5031613;28;20627;-81
2022/09/27 03:14:13;;;;;;;0.30;0.20;;;9.70;99.90;;;;;;5030422;28;20657;-81
2022/09/27 03:16:40;;;;;;;0.40;0.20;;;9.60;99.90;;;;;;5032014;28;20619;-81
2022/09/27 03:19:07;;;;;;;0.30;0.20;;;9.60;99.90;;;;;;5030636;28;21283;-81
2022/09/27 03:21:36;;;;;;;0.30;0.30;;;9.60;99.90;;;;;;5031014;28;20628;-82
2022/09/27 03:24:03;;;;;;;0.30;0.20;;;9.60;99.90;;;;;;5020020;28;20646;-82
2022/09/27 03:26:30;;;;;;;6.43;0.30;;;9.50;99.90;;;;;;5031003;28;20777;-81
2022/09/27 03:28:57;;;;;;;0.30;0.20;;;9.50;99.90;;;;;;5031220;28;20655;-82
2022/09/27 03:31:23;;;;;;;0.30;0.20;;;9.40;99.90;;;;;;5030330;28;20687;-82
2022/09/27 03:33:50;;;;;;;0.50;0.23;;;9.40;99.90;;;;;;5030818;28;21181;-81
2022/09/27 03:36:17;;;;;;;0.40;0.27;;;9.40;99.90;;;;;;5029918;28;20659;-82
2022/09/27 03:38:45;;;;;;;0.30;0.20;;;9.40;99.90;;;;;;5030207;28;21335;-82
2022/09/27 03:41:13;;;;;;;0.30;0.20;;;9.40;99.90;;;;;;5029816;28;20651;-82
2022/09/27 03:43:40;;;;;;;0.50;0.40;;;9.40;99.90;;;;;;5030247;28;20744;-82
2022/09/27 03:46:07;;;;;;;0.40;0.30;;;9.40;99.90;;;;;;5029785;28;20662;-81
2022/09/27 03:48:34;;;;;;;0.30;0.20;;;9.40;99.90;;;;;;5029581;28;20659;-82
2022/09/27 03:51:00;;;;;;;0.30;0.30;;;9.40;99.90;;;;;;5029315;28;20631;-81
2022/09/27 03:53:27;;;;;;;0.63;0.63;;;9.40;99.90;;;;;;5029551;28;20716;-81
2022/09/27 03:55:56;;;;;;;0.37;0.30;;;9.40;99.90;;;;;;5030058;28;20707;-81
2022/09/27 03:58:23;;;;;;;0.50;0.50;;;9.40;99.90;;;;;;5023988;28;20630;-81
2022/09/27 04:00:49;;;;;;;0.30;0.30;;;9.40;99.90;;;;;;5026884;28;20734;-81
2022/09/27 04:03:18;;;;;;;0.40;0.37;;;9.40;99.90;;;;;;5020823;28;20630;-81
2022/09/27 04:05:46;;;;;;;0.60;0.43;;;9.40;99.90;;;;;;5023162;28;20662;-81
2022/09/27 04:08:13;;;;;;;0.53;0.53;;;9.40;99.90;;;;;;5029616;28;20685;-81
2022/09/27 04:10:39;;;;;;;0.50;0.47;;;9.40;99.90;;;;;;5028440;28;20655;-81
2022/09/27 04:13:08;;;;;;;0.40;0.20;;;9.40;99.90;;;;;;5029198;28;20717;-81
2022/09/27 04:15:35;;;;;;;0.93;0.70;;;9.40;99.90;;;;;;5029086;28;20647;-81
2022/09/27 04:18:02;;;;;;;0.60;0.50;;;9.30;99.90;;;;;;5037188;28;21009;-82
2022/09/27 04:20:28;;;;;;;0.53;0.40;;;9.40;99.90;;;;;;5037967;28;20685;-81
2022/09/27 04:22:55;;;;;;;0.80;0.50;;;9.40;99.90;;;;;;5028936;28;20719;-81
2022/09/27 04:25:22;;;;;;;0.93;0.83;;;9.50;99.90;;;;;;5027148;28;20698;-81
2022/09/27 04:27:50;;;;;;;0.83;0.83;;;9.50;99.90;;;;;;5020909;28;20695;-81
2022/09/27 04:30:19;;;;;;;0.40;0.40;;;9.50;99.90;;;;;;5019225;28;20738;-82
2022/09/27 04:32:46;;;;;;;0.63;0.63;;;9.50;99.90;;;;;;5019795;28;20613;-82
2022/09/27 04:37:59;;;;;;;0.80;0.70;;;9.50;99.90;;;;;;5018999;28;20632;-81
2022/09/27 04:40:26;;;;;;;1.27;0.67;;;9.50;99.90;;;;;;5019890;28;20685;-81
2022/09/27 04:42:53;;;;;;;1.90;1.23;;;9.50;99.90;;;;;;5024425;28;20651;-82
2022/09/27 04:45:22;;;;;;;1.60;0.70;;;9.60;99.90;;;;;;5023134;28;20627;-81
2022/09/27 04:47:51;;;;;;;0.63;0.63;;;9.60;99.90;;;;;;5023675;28;20730;-82
2022/09/27 04:50:19;;;;;;;0.47;0.47;;;9.50;99.90;;;;;;5020650;28;20631;-82
2022/09/27 04:52:50;;;;;;;0.50;0.50;;;9.50;99.90;;;;;;5016935;28;20993;-80
2022/09/27 04:55:18;;;;;;;0.63;0.63;;;9.60;99.90;;;;;;5018976;28;20633;-81
2022/09/27 04:57:45;;;;;;;0.70;0.60;;;9.50;99.90;;;;;;5023402;28;20722;-81
2022/09/27 05:00:14;;;;;;;1.30;1.20;;;9.50;99.90;;;;;;5024129;28;21008;-82
2022/09/27 05:02:42;;;;;;;1.10;1.00;;;9.40;99.90;;;;;;5025020;28;20631;-82
2022/09/27 05:05:10;;;;;;;0.90;0.50;;;9.50;99.90;;;;;;5023782;28;20799;-81
2022/09/27 05:07:38;;;;;;;0.83;0.83;;;9.60;99.90;;;;;;5026915;28;20638;-81
2022/09/27 05:10:08;;;;;;;1.53;0.40;;;9.60;99.90;;;;;;5026071;28;20639;-82
2022/09/27 05:12:35;;;;;;;0.60;0.57;;;9.60;99.90;;;;;;5027443;28;21272;-81
2022/09/27 05:15:03;;;;;;;0.90;0.60;;;9.50;99.90;;;;;;5027587;28;20963;-80
2022/09/27 05:17:33;;;;;;;0.87;0.87;;;9.50;99.90;;;;;;5026599;28;20725;-80
2022/09/27 05:20:02;;;;;;;0.50;0.50;;;9.60;99.90;;;;;;5028018;28;21204;-80
2022/09/27 05:22:28;;;;;;;0.67;0.67;;;9.60;99.90;;;;;;5027066;28;20623;-80
2022/09/27 05:24:55;;;;;;;0.60;0.50;;;9.50;99.90;;;;;;5027052;28;20682;-80
2022/09/27 05:27:22;;;;;;;0.47;0.47;;;9.60;99.90;;;;;;5027893;28;20766;-80
2022/09/27 05:29:49;;;;;;;0.53;0.50;;;9.50;99.90;;;;;;5027704;28;20630;-80
2022/09/27 05:32:16;;;;;;;0.63;0.47;;;9.50;99.90;;;;;;5026343;28;20611;-81
2022/09/27 05:34:43;;;;;;;0.43;0.43;;;9.60;99.90;;;;;;5027034;28;20713;-80
2022/09/27 05:37:11;;;;;;;0.40;0.40;;;9.60;99.90;;;;;;5027138;28;21236;-80
2022/09/27 05:39:38;;;;;;;0.40;0.40;;;9.50;99.90;;;;;;5027294;28;20616;-80
2022/09/27 05:42:07;;;;;;;0.87;0.80;;;9.60;99.90;;;;;;5027174;28;20659;-80
2022/09/27 05:44:34;;;;;;;7.50;0.60;;;9.50;99.90;;;;;;5027139;28;20623;-80
2022/09/27 05:47:03;;;;;;;0.70;0.40;;;9.40;99.90;;;;;;5016140;28;20663;-80
2022/09/27 05:49:29;;;;;;;0.30;0.30;;;9.50;99.90;;;;;;5012486;28;20623;-80
2022/09/27 05:51:56;;;;;;;0.73;0.53;;;9.40;99.90;;;;;;5027239;28;20667;-80
2022/09/27 05:54:25;;;;;;;1.57;1.10;;;9.40;99.90;;;;;;5025939;28;20805;-81
2022/09/27 05:56:57;;;;;;;0.30;0.27;;;9.50;99.90;;;;;;5027197;28;20616;-80
2022/09/27 05:59:25;;;;;;;0.60;0.47;;;9.50;99.90;;;;;;5028448;28;20623;-81
2022/09/27 06:01:52;;;;;;;0.60;0.47;;;9.50;99.90;;;;;;5025350;28;21535;-80
2022/09/27 06:04:19;;;;;;;0.50;0.37;;;9.50;99.90;;;;;;5022241;28;20628;-81
2022/09/27 06:06:46;;;;;;;0.90;0.90;;;9.50;99.90;;;;;;5027310;28;20702;-81
2022/09/27 06:09:15;;;;;;;0.60;0.60;;;9.40;99.90;;;;;;5008557;28;20714;-80
2022/09/27 06:11:45;;;;;;;0.60;0.40;;;9.40;99.90;;;;;;5027018;28;20655;-80
2022/09/27 06:14:12;;;;;;;0.40;0.40;;;9.40;99.90;;;;;;5026047;28;20636;-81
2022/09/27 06:16:39;;;;;;;0.70;0.70;;;9.50;99.90;;;;;;5027127;28;21197;-81
2022/09/27 06:19:05;;;;;;;0.50;0.50;;;9.40;99.90;;;;;;5026105;28;20662;-82
2022/09/27 06:21:32;;;;;;;0.40;0.33;;;9.50;99.90;;;;;;5008325;28;20655;-80
2022/09/27 06:23:59;;;;;;;0.63;0.40;;;9.50;99.90;;;;;;5027881;28;20697;-80
2022/09/27 06:26:26;;;;;;;0.40;0.33;;;9.60;99.90;;;;;;5025632;28;20704;-83
2022/09/27 06:28:55;;;;;;;1.23;1.03;;;9.60;99.90;;;;;;5031462;28;20988;-82
2022/09/27 06:31:22;;;;;;;0.83;0.83;;;9.50;99.90;;;;;;5029780;28;20623;-80
2022/09/27 06:33:49;;;;;;;1.07;0.97;;;9.60;99.90;;;;;;5030317;28;20730;-80
2022/09/27 06:36:16;;;;;;;0.30;0.20;;;9.50;99.90;;;;;;5030902;28;20655;-80
2022/09/27 06:38:45;;;;;;;2.07;0.60;;;9.50;99.90;;;;;;5030232;28;20750;-80
2022/09/27 06:41:14;;;;;;;0.40;0.40;;;9.70;99.90;;;;;;5030185;28;20631;-80
2022/09/27 06:43:40;;;;;;;0.40;0.40;;;9.70;99.90;;;;;;5027161;28;21021;-79
2022/09/27 06:46:09;;;;;;;0.40;0.40;;;9.60;99.90;;;;;;5029879;28;20771;-79
2022/09/27 06:48:37;;;;;;;0.40;0.40;;;9.60;99.90;;;;;;5030904;28;20662;-80
2022/09/27 06:51:04;;;;;;;0.40;0.40;;;9.60;99.90;;;;;;5030296;28;20646;-80
2022/09/27 06:53:31;;;;;;;0.87;0.60;;;9.50;99.90;;;;;;5030212;28;20657;-80
2022/09/27 06:55:59;;;;;;;0.60;0.53;;;9.50;99.90;;;;;;5029579;28;20655;-79
2022/09/27 07:01:13;;;;;;;1.20;0.70;;;9.50;99.90;;;;;;5031090;28;20619;-79
2022/09/27 07:03:41;;;;;;;0.97;0.97;;;9.50;99.90;;;;;;5029658;28;20728;-80
2022/09/27 07:06:15;;;;;;;0.80;0.77;;;9.60;99.90;;;;;;5026441;28;20647;-79
2022/09/27 07:08:42;;;;;;;0.63;0.40;;;9.60;99.90;;;;;;5024951;28;20655;-79
2022/09/27 07:11:09;;;;;;;0.40;0.33;;;9.60;99.90;;;;;;5022286;28;20638;-80
2022/09/27 07:13:41;;;;;;;0.30;0.20;;;9.60;99.90;;;;;;5029497;28;20620;-79
2022/09/27 07:16:10;;;;;;;0.30;0.20;;;9.60;99.90;;;;;;5024449;28;20643;-79
2022/09/27 07:18:39;;;;;;;0.60;0.30;;;9.70;99.90;;;;;;5028578;28;20667;-80
2022/09/27 07:21:07;;;;;;;0.60;0.40;;;9.60;99.90;;;;;;5030536;28;20627;-79
2022/09/27 07:23:34;;;;;;;0.40;0.23;;;9.60;99.90;;;;;;5023554;28;20638;-79
2022/09/27 07:26:05;;;;;;;0.40;0.30;;;9.70;99.90;;;;;;5030002;28;20775;-79
2022/09/27 07:28:33;;;;;;;0.40;0.27;;;9.70;99.90;;;;;;5027607;28;20631;-79
2022/09/27 07:31:01;;;;;;;0.40;0.20;;;9.70;99.90;;;;;;5029469;28;20645;-79
2022/09/27 07:33:28;;;;;;;0.30;0.20;;;9.80;99.90;;;;;;5029949;28;20719;-79
2022/09/27 07:35:57;;;;;;;0.30;0.20;;;9.70;99.90;;;;;;5028651;28;20710;-80
2022/09/27 07:38:24;;;;;;;0.30;0.20;;;9.70;99.90;;;;;;5028810;28;20638;-81
2022/09/27 07:40:51;;;;;;;0.50;0.43;;;9.70;99.90;;;;;;5029345;28;21240;-82
2022/09/27 07:43:18;;;;;;;0.30;0.30;;;9.60;99.90;;;;;;5029678;28;20708;-80
2022/09/27 07:45:45;;;;;;;0.50;0.50;;;9.70;99.90;;;;;;5027968;28;20681;-79
2022/09/27 07:48:14;;;;;;;0.63;0.40;;;9.70;99.90;;;;;;5026573;28;20745;-79
2022/09/27 07:50:41;;;;;;;0.40;0.30;;;9.80;99.90;;;;;;5022510;28;20619;-79
2022/09/27 07:53:11;;;;;;;0.30;0.20;;;9.70;99.90;;;;;;5029370;28;20635;-81
2022/09/27 07:55:38;;;;;;;0.40;0.30;;;9.70;99.90;;;;;;5029491;28;20672;-82
2022/09/27 07:58:08;;;;;;;0.30;0.23;;;9.70;99.90;;;;;;5029372;28;20622;-80
2022/09/27 08:00:37;;;;;;;0.40;0.20;;;9.70;99.90;;;;;;5027783;28;21360;-79
2022/09/27 08:03:07;;;;;;;0.30;0.20;;;9.70;99.90;;;;;;5028636;28;20697;-79
2022/09/27 08:05:36;;;;;;;0.30;0.30;;;9.90;99.90;;;;;;5028799;28;20620;-79
2022/09/27 08:08:03;;;;;;;0.50;0.50;;;9.90;99.90;;;;;;5015195;28;20673;-83
2022/09/27 08:10:32;;;;;;;0.60;0.40;;;9.90;99.90;;;;;;5028187;28;20754;-80
2022/09/27 08:13:02;;;;;;;0.97;0.53;;;9.90;99.90;;;;;;5029057;28;20278;-80
2022/09/27 08:15:29;;;;;;;2.50;0.50;;;9.80;99.90;;;;;;5027465;28;20636;-80
2022/09/27 08:17:56;;;;;;;0.30;0.23;;;9.80;99.90;;;;;;5025539;28;20730;-80
2022/09/27 08:20:23;;;;;;;0.47;0.47;;;9.80;99.90;;;;;;5020760;28;20652;-80
2022/09/27 08:22:50;;;;;;;0.50;0.20;;;9.90;99.90;;;;;;5023171;28;21038;-80
2022/09/27 08:25:17;;;;;;;0.67;0.20;;;10.00;99.90;;;;;;5024005;28;20647;-80
2022/09/27 08:27:55;;;;;;;0.30;0.20;;;10.00;99.90;;;;;;5023211;28;20659;-80
2022/09/27 08:30:22;;;;;;;0.37;0.30;;;10.00;99.90;;;;;;5023779;28;20631;-80
2022/09/27 08:32:48;;;;;;;0.40;0.30;;;10.10;99.90;;;;;;5028687;28;20643;-80
2022/09/27 08:35:16;;;;;;;0.50;0.27;;;10.20;99.90;;;;;;5021410;28;20670;-80
2022/09/27 08:37:42;;;;;;;0.40;0.30;;;10.30;99.90;;;;;;5027875;28;20619;-80
2022/09/27 08:40:16;;;;;;;0.30;0.30;;;10.30;99.90;;;;;;5029006;28;20678;-79
2022/09/27 08:42:54;;;;;;;0.40;0.40;;;10.20;99.90;;;;;;5028004;28;20635;-79
2022/09/27 08:45:28;;;;;;;0.47;0.40;;;10.20;99.90;;;;;;5025837;28;20620;-79
2022/09/27 08:47:59;;;;;;;0.37;0.33;;;10.20;99.90;;;;;;5027684;28;21254;-79
2022/09/27 08:50:29;;;;;;;0.40;0.33;;;10.20;99.90;;;;;;5028172;28;20612;-79
2022/09/27 08:53:00;;;;;;;0.70;0.50;;;10.20;99.90;;;;;;5028206;28;20659;-80
2022/09/27 08:55:35;;;;;;;0.50;0.50;;;10.10;99.90;;;;;;5024135;28;20631;-79
2022/09/27 08:58:12;;;;;;;0.30;0.20;;;10.10;99.90;;;;;;5024805;28;20631;-79
2022/09/27 09:00:40;;;;;;;0.30;0.20;;;10.10;99.90;;;;;;5027863;28;20619;-79
2022/09/27 09:03:17;;;;;;;0.30;0.20;;;10.20;99.90;;;;;;5028868;28;21242;-79
2022/09/27 09:05:53;;;;;;;0.40;0.20;;;10.30;99.90;;;;;;5024575;28;20726;-80
2022/09/27 09:08:30;;;;;;;0.30;0.20;;;10.40;99.90;;;;;;5021046;28;21228;-79
2022/09/27 09:14:27;;;;;;;0.50;0.50;;;10.70;99.90;;;;;;5022300;28;20683;-81
2022/09/27 09:17:04;;;;;;;0.40;0.30;;;10.70;99.90;;;;;;5016608;28;20719;-81
2022/09/27 09:19:48;;;;;;;0.60;0.40;;;10.90;99.90;;;;;;5025492;28;21193;-79
2022/09/27 09:22:33;;;;;;;0.33;0.30;;;11.00;99.90;;;;;;5030609;28;20747;-81
2022/09/27 09:25:16;;;;;;;0.50;0.40;;;11.10;99.90;;;;;;5025063;28;21090;-79
2022/09/27 09:27:49;;;;;;;0.30;0.20;;;11.20;99.90;;;;;;5024460;28;21350;-79
2022/09/27 09:30:22;;;;;;;0.50;0.50;;;11.30;99.90;;;;;;5023934;28;20713;-80
2022/09/27 09:33:10;;;;;;;0.30;0.30;;;11.40;99.90;;;;;;5026894;28;21464;-80
2022/09/27 09:35:40;;;;;;;0.53;0.50;;;11.50;99.70;;;;;;5024030;28;21355;-79
2022/09/27 09:38:13;;;;;;;0.40;0.30;;;11.70;99.90;;;;;;5027384;28;21012;-80
2022/09/27 09:40:46;;;;;;;0.53;0.47;;;11.80;98.70;;;;;;5027700;28;21200;-79
2022/09/27 09:43:19;;;;;;;0.40;0.40;;;11.80;99.20;;;;;;5027768;28;20619;-80
2022/09/27 09:45:51;;;;;;;0.70;0.70;;;12.00;99.10;;;;;;5027708;28;20627;-79
2022/09/27 09:48:35;;;;;;;0.40;0.40;;;11.90;97.40;;;;;;5028195;28;20655;-80
2022/09/27 09:51:09;;;;;;;0.40;0.40;;;11.90;97.40;;;;;;5027694;28;20709;-80
2022/09/27 09:53:42;;;;;;;0.50;0.50;;;11.70;96.80;;;;;;5027707;28;20688;-79
2022/09/27 09:56:15;;;;;;;0.50;0.50;;;11.80;97.20;;;;;;5027106;28;21264;-80
2022/09/27 09:58:47;;;;;;;0.47;0.33;;;11.80;96.80;;;;;;5024781;28;21235;-79
2022/09/27 10:01:20;;;;;;;0.50;0.50;;;11.70;97.00;;;;;;5026668;28;21189;-79
2022/09/27 10:03:48;;;;;;;0.60;0.40;;;11.80;96.70;;;;;;5019694;28;20638;-81
2022/09/27 10:06:17;;;;;;;0.70;0.60;;;11.90;96.10;;;;;;5027475;28;20678;-80
2022/09/27 10:08:44;;;;;;;0.83;0.50;;;11.90;96.60;;;;;;5027294;28;20774;-79
2022/09/27 10:11:19;;;;;;;0.50;0.40;;;12.00;97.20;;;;;;5027119;28;20655;-80
2022/09/27 10:13:47;;;;;;;0.50;0.50;;;12.00;97.00;;;;;;5027945;28;20638;-79
2022/09/27 10:16:18;;;;;;;0.60;0.50;;;12.20;96.90;;;;;;5026703;28;20624;-80
2022/09/27 10:18:46;;;;;;;0.70;0.50;;;12.50;97.10;;;;;;5026745;28;20651;-81
2022/09/27 10:21:18;;;;;;;0.73;0.73;;;12.60;95.90;;;;;;5026970;28;20627;-79
2022/09/27 10:24:08;;;;;;;0.50;0.40;;;12.60;95.80;;;;;;5026488;28;20636;-79
2022/09/27 10:26:37;;;;;;;0.30;0.30;;;12.40;95.90;;;;;;5026377;28;20624;-79
2022/09/27 10:29:29;;;;;;;1.03;0.87;;;12.20;95.80;;;;;;5026873;28;20754;-80
2022/09/27 10:31:58;;;;;;;0.40;0.30;;;12.10;95.80;;;;;;5026306;28;20746;-80
2022/09/27 10:34:29;;;;;;;0.60;0.60;;;11.90;95.00;;;;;;5026058;28;20772;-79
2022/09/27 10:37:17;;;;;;;0.43;0.40;;;11.90;95.80;;;;;;5026924;28;21184;-80
2022/09/27 10:39:45;;;;;;;11.43;1.23;;;11.90;95.00;;;;;;5027326;28;20838;-79
2022/09/27 10:42:30;;;;;;;0.40;0.40;;;11.90;95.80;;;;;;5027719;28;20647;-79
2022/09/27 10:44:57;;;;;;;0.73;0.73;;;12.10;95.50;;;;;;5007683;28;20655;-79
2022/09/27 10:47:25;;;;;;;0.60;0.60;;;12.10;95.80;;;;;;5026539;28;20769;-80
2022/09/27 10:50:02;;;;;;;1.43;1.33;;;12.20;95.00;;;;;;5007613;28;20637;-79
2022/09/27 10:52:29;;;;;;;5.10;0.77;;;12.20;95.10;;;;;;5008319;28;20616;-80
2022/09/27 10:54:59;;;;;;;0.67;0.67;;;12.30;95.40;;;;;;5008079;28;20675;-80
2022/09/27 10:57:28;;;;;;;1.40;0.77;;;12.30;94.40;;;;;;5024563;28;20638;-80
2022/09/27 10:59:58;;;;;;;0.60;0.57;;;12.30;94.90;;;;;;5027450;28;20661;-80
2022/09/27 11:02:29;;;;;;;0.80;0.77;;;12.10;95.00;;;;;;5026543;28;20623;-80
2022/09/27 11:05:10;;;;;;;0.70;0.70;;;12.20;96.10;;;;;;5026955;28;20722;-80
2022/09/27 11:07:37;;;;;;;0.50;0.50;;;12.30;95.40;;;;;;5008120;28;21031;-79
2022/09/27 11:10:24;;;;;;;2.00;0.70;;;12.20;95.40;;;;;;5015866;28;20734;-79
2022/09/27 11:13:13;;;;;;;0.70;0.70;;;12.20;95.60;;;;;;5024534;28;20634;-80
2022/09/27 11:15:55;;;;;;;0.70;0.30;;;12.10;94.80;;;;;;5030280;28;20636;-79
2022/09/27 11:18:34;;;;;;;1.37;1.27;;;12.10;96.10;;;;;;5030366;28;21224;-80
2022/09/27 11:21:12;;;;;;;1.37;1.27;;;12.20;95.80;;;;;;5012746;28;20755;-80
2022/09/27 11:24:11;;;;;;;0.50;0.43;;;12.30;94.90;;;;;;5025035;28;20654;-79
2022/09/27 11:26:50;;;;;;;0.40;0.37;;;12.30;94.20;;;;;;5028891;28;20685;-79
2022/09/27 11:29:29;;;;;;;0.50;0.30;;;12.30;93.70;;;;;;5029526;28;20670;-80
2022/09/27 11:32:13;;;;;;;0.40;0.30;;;12.20;93.30;;;;;;5029712;28;20659;-79
2022/09/27 11:35:05;;;;;;;0.30;0.30;;;12.30;94.20;;;;;;5023560;28;20638;-79
2022/09/27 11:37:42;;;;;;;1.40;0.87;;;12.30;94.10;;;;;;5029210;28;20722;-80
2022/09/27 11:40:20;;;;;;;0.97;0.40;;;12.40;94.00;;;;;;5030737;28;20619;-80
2022/09/27 11:43:15;;;;;;;0.73;0.47;;;12.20;94.20;;;;;;5030657;28;20713;-80
2022/09/27 11:45:54;;;;;;;0.47;0.43;;;12.20;94.50;;;;;;5027536;28;21235;-79
2022/09/27 11:48:37;;;;;;;0.77;0.77;;;12.20;94.00;;;;;;5029592;28;20662;-79
2022/09/27 11:51:37;;;;;;;0.50;0.50;;;12.20;94.70;;;;;;5029984;28;20626;-79
2022/09/27 11:54:20;;;;;;;0.40;0.30;;;12.30;95.60;;;;;;5029813;28;20631;-78
2022/09/27 11:56:55;;;;;;;0.80;0.50;;;12.40;95.50;;;;;;5030074;28;20617;-79
2022/09/27 11:59:53;;;;;;;1.77;0.40;;;12.40;95.90;;;;;;5016230;28;20632;-78
2022/09/27 12:02:38;;;;;;;0.50;0.50;;;12.60;95.90;;;;;;5011250;28;20628;-79
2022/09/27 12:05:29;;;;;;;0.60;0.30;;;12.50;95.50;;;;;;5029449;28;20629;-79
2022/09/27 12:08:17;;;;;;;0.60;0.47;;;12.70;95.90;;;;;;5029519;28;20659;-79
2022/09/27 12:10:49;;;;;;;0.30;0.27;;;12.80;95.60;;;;;;5029696;28;20623;-79
2022/09/27 12:13:24;;;;;;;0.40;0.40;;;12.70;95.70;;;;;;5029374;28;20619;-78
2022/09/27 12:15:51;;;;;;;0.53;0.30;;;12.70;95.50;;;;;;5023669;28;20614;-79
2022/09/27 12:18:27;;;;;;;0.50;0.30;;;12.80;95.90;;;;;;5017999;28;20947;-80
2022/09/27 12:20:55;;;;;;;0.70;0.50;;;12.80;96.20;;;;;;5023870;28;20619;-80
2022/09/27 12:23:34;;;;;;;0.60;0.40;;;12.80;95.40;;;;;;5016661;28;20613;-82
2022/09/27 12:26:44;;;;;;;0.50;0.33;;;12.80;95.50;;;;;;5019461;28;20663;-81
2022/09/27 12:29:20;;;;;;;0.40;0.40;;;12.50;95.60;;;;;;5000081;28;20776;-81
2022/09/27 12:32:08;;;;;;;0.40;0.27;;;12.30;97.00;;;;;;5020277;28;20615;-82
2022/09/27 12:34:40;;;;;;;0.40;0.30;;;12.20;98.40;;;;;;5013517;28;20648;-80
2022/09/27 12:37:12;;;;;;;0.70;0.70;;;12.30;97.90;;;;;;5014091;28;20742;-79
2022/09/27 12:40:11;;;;;;;0.40;0.40;;;12.20;98.30;;;;;;5020341;28;20629;-81
2022/09/27 12:42:57;;;;;;;0.40;0.20;;;12.20;98.40;;;;;;5019625;28;20655;-81
2022/09/27 12:45:36;;;;;;;0.60;0.20;;;12.10;99.00;;;;;;5018629;28;20623;-79
2022/09/27 12:48:16;;;;;;;0.40;0.30;;;12.00;99.00;;;;;;5019315;28;20795;-79
2022/09/27 12:50:46;;;;;;;0.30;0.27;;;12.00;99.70;;;;;;5017361;28;21260;-77
2022/09/27 12:53:18;;;;;;;0.80;0.50;;;12.00;99.50;;;;;;5020358;28;20632;-78
2022/09/27 12:56:32;;;;;;;0.40;0.40;;;12.00;99.90;;;;;;5018251;28;20627;-80
2022/09/27 12:59:27;;;;;;;0.30;0.30;;;11.90;99.10;;;;;;5025021;28;20622;-79
2022/09/27 13:02:19;;;;;;;0.40;0.20;;;11.80;98.90;;;;;;5018866;28;20719;-78
2022/09/27 13:05:18;;;;;;;0.37;0.27;;;12.00;99.90;;;;;;5018174;28;20633;-78
2022/09/27 13:07:57;;;;;;;0.60;0.40;;;12.10;99.50;;;;;;5021360;28;20750;-79
2022/09/27 13:10:40;;;;;;;0.50;0.30;;;12.20;99.90;;;;;;5018612;28;20721;-79
2022/09/27 13:13:11;;;;;;;0.43;0.40;;;12.30;99.50;;;;;;5018856;28;20703;-78
2022/09/27 13:15:44;;;;;;;0.40;0.30;;;12.20;99.40;;;;;;5018508;28;20631;-78
2022/09/27 13:18:30;;;;;;;0.70;0.60;;;12.30;99.50;;;;;;5018788;28;20634;-78
2022/09/27 13:20:57;;;;;;;0.53;0.53;;;12.40;99.50;;;;;;5016497;28;20635;-79
2022/09/27 13:24:00;;;;;;;1.70;1.03;;;12.30;99.50;;;;;;5017644;28;20738;-80
2022/09/27 13:26:50;;;;;;;0.33;0.30;;;12.30;99.40;;;;;;5022614;28;20627;-79